Aérodrome :
LOGIN :

S'inscrire | Disclaimer

   EN    FR    IT 

 










Légende :    VFR   VFR Marginal   IFR   IFR Intensif   IFR Très Intensif
Visi : 
Plafond : 
>= 8 km
>= 3000ft
5 à 8 km
1000 à 3000 ft
1500m à 5 km
500 à 1000 ft
800 à 1500m
200 à 500 ft
< 800m
< 200 ft
Symboles :   Orages  Brouillard  Fortes neiges  Fortes précipitations  Vent > 20 kt
SIGMETs :   Divers  Orages  Givrage  Turbulence  Onde Orograph.  Cendres Volcan.







- Altitude de l'aérodrome : 74 ft
- Code IATA : MRS
- Voir les cartes d'approche


LFML - Marseille / Marignane

DERNIER METAR :
  • 262300Z AUTO VRB02KT CAVOK 18/15 Q1016 NOSIG

METARs EXPIRÉS :
  • 262230Z AUTO 00000KT 9999 ///TCU 19/15 Q1016 BECMG NSC
  • 262200Z AUTO 11003KT 080V150 9999 FEW030/// BKN140/// BKN180/// ///TCU 19/14 Q1017 BECMG NSC
  • 262130Z AUTO 19003KT 9999 ///TCU 20/13 Q1017 BECMG NSC
  • 262100Z AUTO VRB02KT CAVOK 20/13 Q1017 NOSIG
  • 262030Z AUTO 01001KT CAVOK 21/14 Q1017 NOSIG

TAF TAF LFML
Valide du 26 à 21h jusqu'au 28 à 03h UTC


262000Z 2621/2803 VRB05KT CAVOK
BECMG 2701/2703 08010KT
BECMG 2703/2706 09015G25KT
TEMPO 2706/2711 09020G30KT
BECMG 2711/2714 VRB05KT
TEMPO 2713/2724 SHRA BKN040
PROB40
TEMPO 2713/2724 5000 TSRA BKN025 BKN040CB TX27/2712Z TN18/2700Z
ATIS : +33 4 42 31 15 15
Pas de NOTAMs connus pour ce terrain.
1 SIGMET publié pour la FIR Marseille (LFMM) :
 
Turbulence forte
LFMM SIGMET 10 VALID 261900/262300 LFPW
LFMM MARSEILLE FIR/UIR SEV TURB FCST WI N4000 E00430 - N4145 E00430 - N4345 E00745 - N4315 E00945 - N4000 E00430 FL280/400 STNR NC=



MET'MAP, la Météo Aéronautique d'un coup d'oeil ! - Copyright ORBIFLY Décembre 2007 - Disclaimer

ORBIFLY MET'MAP TEAM :

Programmation & Développement : Alexandra Zaïnal
Conception & Développement : Baudouin d'Aumeries
Co-Programmation & Développement : Marc-Olivier Méhu
Soutien technique & logistique : Manuel Goepfert

Contact : metmap@orbifly.com




SOURCES & CREDITS :

   NOAA